13:20
Airports
History
Links
Donate
Help keep this website running!
PayPal
Bitcoin
This page is community maintained. The information is intended for PC simulator navigation or reference.
Always use approved charts for navigation.
SNOG
Ceara - Mirim
Ceara - Mirim (SNOG)
CearĂ¡-Mirim, Rio Grande do Norte, Brazil (59570)
(U)
Lat/Lng:5° 39' 38" S / 35° 24' 56" W
-5.660556 / -35.415556
Elevation:171'ft / 52mMSL
ID / ICAO:SNOG
Runways:1
Longest:14-32
Asphalt 1,207m / 3,960ft
Nearby Weather13:00 GMT 2018-01-20
Nearby weather at SBNT, Augusto Severo located 20.8 nautical miles from SNOG
Altimeter: 29.94
Visibility: 6.2 statute miles
Wind: 8 knots (from 170°)
Temp: 27°c / 81°f
Humidity: 83.7%

METAR: SBNT 201300Z 17008KT 9999 VCSH FEW008 BKN011 FEW023TCU 27/24 Q1014

(Powered by phpweather)
Runway 14 / 32
Dimensions:1207 x 20.1m 3960' x 66'ft
Surface:Asphalt
Runway 14 [A]Runway 32 [B]
Heading:118°TH 298°TH
Lat:
Lng:
5° 39' 28.74"S
35° 25' 13.19"W
5° 39' 47.26"S
35° 24' 38.81"W
User Notes and Comments
5° 39' 38" S / 35° 24' 56" W
Distance To
Airport ID:
Nearby Airports
(U) CEARA MIRIM 0.1 NM
SB38 ESE 111°
(U) MAXARANGUAPE 20.6 NM
SNXX NNW 337°
(C) Augusto Severo 20.8 NM
SBNT ( WX ) SE 146°
4 Fazenda Bebida Velha 26.5 NM
SNZO NNW 341°
4 Severino Lopes 27.6 NM
SJBX SSE 154°
(C) Jardim De Angicos 37.2 NM
SNJA W 272°
(U) Senador Antonio Farias 57.6 NM
SIQA SSE 153°
VFR Chart
Flight Planning at SkyVector.com